Station Historical Data
Daily Summary for January 2, 2018 Units:  English    Metric   Both
« Previous Day
Next Day »
Daily Weekly Monthly Yearly Custom
  High: Low: Average:
Temperature: 17.5 °F 10.7 °F 14.6 °F
Dew Point: 14.6 °F 6.6 °F 10.2 °F
Humidity: 88% 76% 83%
Wind Speed: 32.0mph 2.0mph 9.1mph
Wind Gust: 34.0mph - -
Wind- - WSW
Pressure: 30.46 in 30.23 in -
Precipitation: 0.00 in    
Historical Graphs
 
 
Tabular Data for January 2, 2018
Time Temperature Dew Point Pressure Wind Wind Speed Wind Gust Humidity Rainfall Rate (Hourly)
00:04 10.7 °F 6.6 °F 30.46 in WNW 4.0 mph 11.0 mph 83% 0.00 in
00:09 10.7 °F 6.6 °F 30.46 in West 6.0 mph 14.0 mph 83% 0.00 in
00:14 10.8 °F 6.7 °F 30.46 in WNW 4.0 mph 13.0 mph 83% 0.00 in
00:15 10.8 °F 6.7 °F 30.46 in West 7.0 mph 14.0 mph 83% 0.00 in
00:24 10.8 °F 6.7 °F 30.46 in WNW 12.0 mph 12.0 mph 83% 0.00 in
00:29 10.8 °F 6.7 °F 30.45 in West 9.0 mph 12.0 mph 83% 0.00 in
00:34 10.8 °F 6.7 °F 30.45 in WNW 6.0 mph 12.0 mph 83% 0.00 in
00:39 10.9 °F 6.8 °F 30.45 in NW 9.0 mph 14.0 mph 83% 0.00 in
00:49 10.9 °F 6.8 °F 30.45 in West 6.0 mph 11.0 mph 83% 0.00 in
00:59 11.0 °F 6.6 °F 30.44 in West 6.0 mph 12.0 mph 82% 0.00 in
01:04 11.0 °F 6.6 °F 30.44 in West 6.0 mph 11.0 mph 82% 0.00 in
01:09 11.0 °F 6.6 °F 30.44 in West 6.0 mph 9.0 mph 82% 0.00 in
01:14 11.1 °F 6.7 °F 30.44 in West 6.0 mph 13.0 mph 82% 0.00 in
01:24 11.3 °F 6.9 °F 30.43 in West 4.0 mph 12.0 mph 82% 0.00 in
01:29 11.4 °F 7.0 °F 30.43 in West 7.0 mph 11.0 mph 82% 0.00 in
01:34 11.4 °F 7.0 °F 30.43 in WNW 8.0 mph 9.0 mph 82% 0.00 in
01:44 11.6 °F 7.2 °F 30.43 in West 2.0 mph 10.0 mph 82% 0.00 in
01:49 11.7 °F 7.3 °F 30.43 in West 9.0 mph 9.0 mph 82% 0.00 in
01:54 11.9 °F 7.5 °F 30.43 in West 5.0 mph 13.0 mph 82% 0.00 in
01:59 11.9 °F 7.5 °F 30.43 in West 10.0 mph 15.0 mph 82% 0.00 in
02:04 12.1 °F 7.7 °F 30.43 in West 7.0 mph 15.0 mph 82% 0.00 in
02:14 12.3 °F 7.6 °F 30.43 in West 5.0 mph 10.0 mph 81% 0.00 in
02:19 12.3 °F 7.6 °F 30.43 in West 5.0 mph 9.0 mph 81% 0.00 in
02:24 12.4 °F 7.7 °F 30.43 in West 5.0 mph 10.0 mph 81% 0.00 in
02:34 12.6 °F 7.9 °F 30.43 in WNW 3.0 mph 7.0 mph 81% 0.00 in
02:49 12.8 °F 7.8 °F 30.44 in West 5.0 mph 7.0 mph 80% 0.00 in
02:54 12.9 °F 7.9 °F 30.44 in West 5.0 mph 11.0 mph 80% 0.00 in
02:59 13.0 °F 8.0 °F 30.43 in WSW 4.0 mph 11.0 mph 80% 0.00 in
03:09 13.3 °F 8.0 °F 30.44 in WNW 8.0 mph 9.0 mph 79% 0.00 in
03:14 13.3 °F 8.0 °F 30.43 in West 6.0 mph 13.0 mph 79% 0.00 in
03:24 13.5 °F 7.9 °F 30.43 in West 7.0 mph 14.0 mph 78% 0.00 in
03:29 13.5 °F 7.9 °F 30.43 in West 7.0 mph 15.0 mph 78% 0.00 in
03:34 13.5 °F 7.9 °F 30.43 in West 7.0 mph 15.0 mph 78% 0.00 in
03:45 13.6 °F 8.0 °F 30.43 in West 9.0 mph 12.0 mph 78% 0.00 in
03:54 13.6 °F 7.7 °F 30.43 in West 8.0 mph 17.0 mph 77% 0.00 in
03:59 13.6 °F 7.7 °F 30.43 in WSW 5.0 mph 14.0 mph 77% 0.00 in
04:04 13.6 °F 7.7 °F 30.43 in West 6.0 mph 12.0 mph 77% 0.00 in
04:14 13.6 °F 7.7 °F 30.43 in WSW 6.0 mph 15.0 mph 77% 0.00 in
04:19 13.5 °F 7.6 °F 30.43 in West 6.0 mph 13.0 mph 77% 0.00 in
04:29 13.4 °F 7.5 °F 30.43 in West 7.0 mph 16.0 mph 77% 0.00 in
04:34 13.4 °F 7.5 °F 30.43 in West 8.0 mph 17.0 mph 77% 0.00 in
04:44 13.3 °F 7.1 °F 30.43 in West 8.0 mph 19.0 mph 76% 0.00 in
04:49 13.2 °F 7.0 °F 30.43 in West 8.0 mph 19.0 mph 76% 0.00 in
04:54 13.2 °F 7.0 °F 30.43 in West 9.0 mph 20.0 mph 76% 0.00 in
04:59 13.0 °F 6.9 °F 30.43 in WSW 5.0 mph 20.0 mph 76% 0.00 in
05:04 12.9 °F 6.8 °F 30.43 in West 12.0 mph 17.0 mph 76% 0.00 in
05:09 12.9 °F 6.8 °F 30.42 in West 5.0 mph 15.0 mph 76% 0.00 in
05:19 12.8 °F 6.9 °F 30.43 in West 8.0 mph 16.0 mph 77% 0.00 in
05:24 12.7 °F 6.6 °F 30.42 in West 8.0 mph 16.0 mph 76% 0.00 in
05:29 12.8 °F 6.9 °F 30.42 in West 8.0 mph 16.0 mph 77% 0.00 in
05:34 12.7 °F 6.9 °F 30.43 in West 9.0 mph 16.0 mph 77% 0.00 in
05:39 12.8 °F 6.9 °F 30.42 in West 8.0 mph 11.0 mph 77% 0.00 in
05:44 12.8 °F 6.9 °F 30.42 in WNW 8.0 mph 14.0 mph 77% 0.00 in
05:49 12.9 °F 7.0 °F 30.42 in West 8.0 mph 14.0 mph 77% 0.00 in
05:54 13.0 °F 7.1 °F 30.42 in West 7.0 mph 13.0 mph 77% 0.00 in
05:59 13.0 °F 7.1 °F 30.42 in West 8.0 mph 17.0 mph 77% 0.00 in
06:04 13.2 °F 7.3 °F 30.42 in West 7.0 mph 17.0 mph 77% 0.00 in
06:14 13.3 °F 7.4 °F 30.42 in West 5.0 mph 15.0 mph 77% 0.00 in
06:19 13.4 °F 7.5 °F 30.42 in WNW 7.0 mph 14.0 mph 77% 0.00 in
06:24 13.5 °F 7.6 °F 30.41 in West 7.0 mph 14.0 mph 77% 0.00 in
06:29 13.6 °F 7.7 °F 30.41 in West 7.0 mph 11.0 mph 77% 0.00 in
06:34 13.7 °F 7.8 °F 30.41 in West 6.0 mph 11.0 mph 77% 0.00 in
06:44 13.9 °F 8.0 °F 30.41 in West 5.0 mph 13.0 mph 77% 0.00 in
06:54 14.1 °F 8.5 °F 30.41 in West 4.0 mph 13.0 mph 78% 0.00 in
06:59 14.1 °F 8.5 °F 30.41 in West 6.0 mph 13.0 mph 78% 0.00 in
07:04 14.3 °F 8.7 °F 30.41 in West 9.0 mph 11.0 mph 78% 0.00 in
07:09 14.4 °F 9.1 °F 30.41 in West 3.0 mph 12.0 mph 79% 0.00 in
07:14 14.5 °F 9.2 °F 30.40 in SSW 3.0 mph 13.0 mph 79% 0.00 in
07:19 14.6 °F 9.3 °F 30.40 in WSW 8.0 mph 12.0 mph 79% 0.00 in
07:24 14.7 °F 9.4 °F 30.40 in West 7.0 mph 11.0 mph 79% 0.00 in
07:29 14.8 °F 9.5 °F 30.40 in WNW 6.0 mph 13.0 mph 79% 0.00 in
07:34 14.9 °F 9.6 °F 30.40 in West 6.0 mph 13.0 mph 79% 0.00 in
07:39 15.0 °F 9.7 °F 30.40 in West 7.0 mph 14.0 mph 79% 0.00 in
07:44 15.2 °F 9.9 °F 30.40 in West 7.0 mph 14.0 mph 79% 0.00 in
07:49 15.5 °F 10.4 °F 30.40 in West 7.0 mph 14.0 mph 80% 0.00 in
07:54 15.8 °F 10.4 °F 30.40 in West 9.0 mph 18.0 mph 79% 0.00 in
07:59 16.0 °F 10.6 °F 30.40 in West 11.0 mph 23.0 mph 79% 0.00 in
08:09 15.4 °F 9.8 °F 30.41 in West 9.0 mph 16.0 mph 78% 0.00 in
08:14 14.8 °F 9.2 °F 30.41 in West 7.0 mph 16.0 mph 78% 0.00 in
08:19 14.4 °F 8.8 °F 30.40 in NNW 13.0 mph 13.0 mph 78% 0.00 in
08:24 14.1 °F 8.5 °F 30.39 in West 4.0 mph 14.0 mph 78% 0.00 in
08:29 14.0 °F 8.4 °F 30.39 in West 6.0 mph 11.0 mph 78% 0.00 in
08:34 13.9 °F 8.3 °F 30.40 in West 6.0 mph 11.0 mph 78% 0.00 in
08:44 14.0 °F 8.4 °F 30.39 in West 6.0 mph 14.0 mph 78% 0.00 in
08:45 14.0 °F 8.4 °F 30.39 in West 5.0 mph 11.0 mph 78% 0.00 in
08:54 14.2 °F 8.9 °F 30.38 in West 6.0 mph 15.0 mph 79% 0.00 in
08:59 14.4 °F 9.1 °F 30.38 in West 6.0 mph 11.0 mph 79% 0.00 in
09:04 14.5 °F 9.2 °F 30.38 in West 5.0 mph 11.0 mph 79% 0.00 in
09:09 14.7 °F 9.6 °F 30.38 in West 6.0 mph 13.0 mph 80% 0.00 in
09:14 14.8 °F 9.7 °F 30.38 in WSW 11.0 mph 14.0 mph 80% 0.00 in
09:19 14.8 °F 9.5 °F 30.38 in WSW 4.0 mph 13.0 mph 79% 0.00 in
09:24 15.0 °F 9.9 °F 30.38 in WSW 5.0 mph 11.0 mph 80% 0.00 in
09:29 15.1 °F 10.0 °F 30.38 in WSW 7.0 mph 11.0 mph 80% 0.00 in
09:34 15.3 °F 10.2 °F 30.37 in West 8.0 mph 9.0 mph 80% 0.00 in
09:39 15.5 °F 10.7 °F 30.36 in South 5.0 mph 12.0 mph 81% 0.00 in
09:44 16.1 °F 11.3 °F 30.37 in SSW 7.0 mph 17.0 mph 81% 0.00 in
09:45 16.1 °F 11.3 °F 30.37 in WSW 7.0 mph 17.0 mph 81% 0.00 in
09:54 16.5 °F 12.0 °F 30.36 in SSW 9.0 mph 21.0 mph 82% 0.00 in
09:59 16.3 °F 12.0 °F 30.37 in SSW 8.0 mph 20.0 mph 83% 0.00 in
10:04 16.1 °F 11.8 °F 30.37 in SSW 9.0 mph 20.0 mph 83% 0.00 in
10:09 15.9 °F 11.7 °F 30.37 in SSW 9.0 mph 23.0 mph 83% 0.00 in
10:14 15.8 °F 11.8 °F 30.37 in SSW 9.0 mph 23.0 mph 84% 0.00 in
10:19 15.7 °F 11.7 °F 30.37 in SW 11.0 mph 18.0 mph 84% 0.00 in
10:24 15.7 °F 12.0 °F 30.37 in South 5.0 mph 15.0 mph 85% 0.00 in
10:29 15.8 °F 12.1 °F 30.37 in SSW 8.0 mph 21.0 mph 85% 0.00 in
10:34 16.9 °F 13.4 °F 30.36 in SSW 16.0 mph 18.0 mph 86% 0.00 in
10:39 17.4 °F 13.9 °F 30.37 in SW 10.0 mph 21.0 mph 86% 0.00 in
10:49 17.5 °F 14.0 °F 30.36 in West 14.0 mph 25.0 mph 86% 0.00 in
10:54 17.5 °F 14.0 °F 30.35 in SW 22.0 mph 26.0 mph 86% 0.00 in
10:59 17.5 °F 14.0 °F 30.35 in WSW 22.0 mph 22.0 mph 86% 0.00 in
11:04 17.5 °F 14.3 °F 30.35 in SW 13.0 mph 27.0 mph 87% 0.00 in
11:09 17.4 °F 14.2 °F 30.35 in SW 14.0 mph 27.0 mph 87% 0.00 in
11:14 17.4 °F 14.2 °F 30.35 in SW 13.0 mph 22.0 mph 87% 0.00 in
11:19 17.4 °F 14.2 °F 30.34 in SW 13.0 mph 26.0 mph 87% 0.00 in
11:24 17.5 °F 14.3 °F 30.34 in West 15.0 mph 30.0 mph 87% 0.00 in
11:25 17.5 °F 14.3 °F 30.34 in SW 14.0 mph 30.0 mph 87% 0.00 in
11:34 17.4 °F 14.2 °F 30.33 in SSE 19.0 mph 22.0 mph 87% 0.00 in
11:39 17.5 °F 14.3 °F 30.33 in SSW 16.0 mph 24.0 mph 87% 0.00 in
11:44 17.4 °F 14.2 °F 30.33 in SSW 8.0 mph 21.0 mph 87% 0.00 in
11:49 17.4 °F 14.2 °F 30.32 in SW 12.0 mph 25.0 mph 87% 0.00 in
11:54 17.4 °F 14.2 °F 30.32 in SW 11.0 mph 21.0 mph 87% 0.00 in
12:05 17.4 °F 14.2 °F 30.31 in SW 13.0 mph 29.0 mph 87% 0.00 in
12:14 17.3 °F 14.1 °F 30.31 in SW 13.0 mph 22.0 mph 87% 0.00 in
12:19 17.2 °F 14.0 °F 30.31 in SW 13.0 mph 23.0 mph 87% 0.00 in
12:24 17.2 °F 14.0 °F 30.30 in SW 19.0 mph 22.0 mph 87% 0.00 in
12:29 17.3 °F 14.4 °F 30.30 in SSW 10.0 mph 25.0 mph 88% 0.00 in
12:34 17.3 °F 14.4 °F 30.30 in SW 13.0 mph 32.0 mph 88% 0.00 in
12:44 17.3 °F 14.4 °F 30.30 in WSW 7.0 mph 23.0 mph 88% 0.00 in
12:49 17.2 °F 14.3 °F 30.29 in SW 13.0 mph 27.0 mph 88% 0.00 in
13:04 17.2 °F 14.3 °F 30.29 in SW 14.0 mph 25.0 mph 88% 0.00 in
13:14 17.4 °F 14.5 °F 30.29 in SW 13.0 mph 28.0 mph 88% 0.00 in
13:19 17.5 °F 14.6 °F 30.28 in SW 14.0 mph 29.0 mph 88% 0.00 in
13:24 17.5 °F 14.6 °F 30.28 in SW 14.0 mph 29.0 mph 88% 0.00 in
13:29 17.5 °F 14.6 °F 30.29 in SW 13.0 mph 26.0 mph 88% 0.00 in
13:34 17.3 °F 14.4 °F 30.28 in SW 12.0 mph 22.0 mph 88% 0.00 in
13:39 17.2 °F 14.3 °F 30.28 in SW 13.0 mph 26.0 mph 88% 0.00 in
13:44 17.2 °F 14.3 °F 30.28 in SW 13.0 mph 26.0 mph 88% 0.00 in
13:49 17.2 °F 14.3 °F 30.28 in WSW 14.0 mph 25.0 mph 88% 0.00 in
13:54 17.2 °F 14.3 °F 30.28 in SW 13.0 mph 25.0 mph 88% 0.00 in
14:04 17.2 °F 14.3 °F 30.27 in SW 11.0 mph 22.0 mph 88% 0.00 in
14:09 17.2 °F 14.3 °F 30.28 in SW 13.0 mph 31.0 mph 88% 0.00 in
14:29 17.3 °F 14.4 °F 30.28 in SW 13.0 mph 24.0 mph 88% 0.00 in
14:34 17.4 °F 14.5 °F 30.27 in SW 15.0 mph 27.0 mph 88% 0.00 in
14:39 17.5 °F 14.6 °F 30.27 in SW 16.0 mph 27.0 mph 88% 0.00 in
14:44 17.4 °F 14.5 °F 30.27 in SW 16.0 mph 26.0 mph 88% 0.00 in
14:49 17.1 °F 14.2 °F 30.27 in SW 11.0 mph 22.0 mph 88% 0.00 in
14:54 16.9 °F 14.0 °F 30.27 in SW 32.0 mph 34.0 mph 88% 0.00 in
14:59 16.6 °F 13.7 °F 30.27 in WSW 13.0 mph 26.0 mph 88% 0.00 in
15:09 16.2 °F 13.3 °F 30.27 in SW 14.0 mph 26.0 mph 88% 0.00 in
15:14 16.2 °F 13.3 °F 30.27 in SW 12.0 mph 25.0 mph 88% 0.00 in
15:24 15.9 °F 13.0 °F 30.28 in SW 15.0 mph 27.0 mph 88% 0.00 in
15:29 15.9 °F 13.0 °F 30.28 in SW 10.0 mph 23.0 mph 88% 0.00 in
15:40 16.0 °F 13.1 °F 30.28 in SW 14.0 mph 29.0 mph 88% 0.00 in
15:49 15.8 °F 12.9 °F 30.28 in SW 9.0 mph 22.0 mph 88% 0.00 in
15:54 15.8 °F 12.9 °F 30.28 in SW 12.0 mph 28.0 mph 88% 0.00 in
15:59 15.9 °F 13.0 °F 30.28 in SW 13.0 mph 28.0 mph 88% 0.00 in
16:04 15.9 °F 13.0 °F 30.28 in SW 15.0 mph 25.0 mph 88% 0.00 in
16:09 15.8 °F 12.9 °F 30.28 in South 9.0 mph 28.0 mph 88% 0.00 in
16:14 15.8 °F 12.9 °F 30.28 in SW 13.0 mph 28.0 mph 88% 0.00 in
16:29 15.9 °F 13.0 °F 30.28 in SW 14.0 mph 25.0 mph 88% 0.00 in
16:34 15.8 °F 12.9 °F 30.27 in SW 13.0 mph 27.0 mph 88% 0.00 in
16:39 15.8 °F 12.9 °F 30.27 in SW 13.0 mph 27.0 mph 88% 0.00 in
16:44 15.6 °F 12.7 °F 30.27 in WSW 17.0 mph 23.0 mph 88% 0.00 in
16:49 15.6 °F 12.7 °F 30.27 in SW 11.0 mph 23.0 mph 88% 0.00 in
16:54 15.7 °F 12.8 °F 30.27 in SW 11.0 mph 21.0 mph 88% 0.00 in
16:59 15.8 °F 12.9 °F 30.27 in SW 11.0 mph 18.0 mph 88% 0.00 in
17:04 15.7 °F 12.5 °F 30.27 in SW 10.0 mph 20.0 mph 87% 0.00 in
17:09 15.5 °F 12.3 °F 30.26 in SSW 5.0 mph 24.0 mph 87% 0.00 in
17:14 15.4 °F 12.2 °F 30.27 in SSW 6.0 mph 22.0 mph 87% 0.00 in
17:19 15.3 °F 12.1 °F 30.27 in WSW 21.0 mph 29.0 mph 87% 0.00 in
17:24 15.3 °F 12.1 °F 30.27 in SW 12.0 mph 29.0 mph 87% 0.00 in
17:29 15.3 °F 12.1 °F 30.26 in SW 12.0 mph 22.0 mph 87% 0.00 in
17:34 15.3 °F 12.1 °F 30.26 in SW 13.0 mph 21.0 mph 87% 0.00 in
17:44 15.4 °F 12.2 °F 30.26 in SW 12.0 mph 26.0 mph 87% 0.00 in
17:49 15.4 °F 12.2 °F 30.26 in SSW 4.0 mph 24.0 mph 87% 0.00 in
17:50 15.4 °F 12.2 °F 30.26 in SSW 11.0 mph 26.0 mph 87% 0.00 in
17:59 15.4 °F 12.0 °F 30.26 in SSW 9.0 mph 18.0 mph 86% 0.00 in
18:04 15.2 °F 11.8 °F 30.25 in SSW 9.0 mph 21.0 mph 86% 0.00 in
18:09 15.1 °F 11.7 °F 30.25 in SW 12.0 mph 17.0 mph 86% 0.00 in
18:14 15.0 °F 11.6 °F 30.26 in SSW 8.0 mph 17.0 mph 86% 0.00 in
18:19 14.9 °F 11.2 °F 30.26 in West 8.0 mph 16.0 mph 85% 0.00 in
18:24 14.9 °F 11.2 °F 30.26 in South 7.0 mph 18.0 mph 85% 0.00 in
18:29 14.9 °F 11.2 °F 30.27 in SSE 5.0 mph 12.0 mph 85% 0.00 in
18:39 14.8 °F 11.1 °F 30.26 in SSW 8.0 mph 15.0 mph 85% 0.00 in
18:44 14.8 °F 11.1 °F 30.26 in SSW 8.0 mph 15.0 mph 85% 0.00 in
18:49 14.7 °F 10.7 °F 30.27 in SSW 8.0 mph 17.0 mph 84% 0.00 in
18:54 14.8 °F 10.8 °F 30.27 in SW 5.0 mph 16.0 mph 84% 0.00 in
18:59 14.7 °F 10.7 °F 30.27 in SW 11.0 mph 17.0 mph 84% 0.00 in
19:04 14.6 °F 10.6 °F 30.27 in SSW 15.0 mph 17.0 mph 84% 0.00 in
19:14 14.5 °F 10.5 °F 30.26 in SW 7.0 mph 20.0 mph 84% 0.00 in
19:19 14.5 °F 10.5 °F 30.26 in SW 7.0 mph 20.0 mph 84% 0.00 in
19:24 14.5 °F 10.3 °F 30.27 in SSW 7.0 mph 17.0 mph 83% 0.00 in
19:29 14.5 °F 10.3 °F 30.26 in SW 6.0 mph 15.0 mph 83% 0.00 in
19:34 14.5 °F 10.3 °F 30.26 in South 7.0 mph 15.0 mph 83% 0.00 in
19:44 14.4 °F 10.2 °F 30.26 in SSW 8.0 mph 20.0 mph 83% 0.00 in
19:49 14.3 °F 9.8 °F 30.26 in SSW 8.0 mph 15.0 mph 82% 0.00 in
19:59 14.2 °F 9.7 °F 30.26 in SSE 8.0 mph 15.0 mph 82% 0.00 in
20:14 14.0 °F 9.5 °F 30.25 in South 8.0 mph 14.0 mph 82% 0.00 in
20:19 14.0 °F 9.5 °F 30.25 in SSW 8.0 mph 16.0 mph 82% 0.00 in
20:24 13.9 °F 9.1 °F 30.25 in SSW 8.0 mph 16.0 mph 81% 0.00 in
20:34 13.9 °F 9.1 °F 30.25 in SSW 7.0 mph 13.0 mph 81% 0.00 in
20:39 13.9 °F 9.1 °F 30.25 in SW 6.0 mph 13.0 mph 81% 0.00 in
20:44 13.8 °F 9.0 °F 30.25 in South 9.0 mph 16.0 mph 81% 0.00 in
20:49 13.8 °F 9.0 °F 30.25 in WSW 8.0 mph 15.0 mph 81% 0.00 in
20:54 13.8 °F 9.0 °F 30.24 in SSW 7.0 mph 15.0 mph 81% 0.00 in
20:59 13.8 °F 9.0 °F 30.25 in SSW 7.0 mph 18.0 mph 81% 0.00 in
21:04 13.7 °F 9.0 °F 30.24 in SW 13.0 mph 17.0 mph 81% 0.00 in
21:14 13.7 °F 9.0 °F 30.24 in South 7.0 mph 17.0 mph 81% 0.00 in
21:19 13.7 °F 9.0 °F 30.24 in SSW 8.0 mph 12.0 mph 81% 0.00 in
21:24 13.6 °F 8.9 °F 30.24 in SSW 6.0 mph 13.0 mph 81% 0.00 in
21:29 13.6 °F 8.9 °F 30.24 in SSW 7.0 mph 13.0 mph 81% 0.00 in
21:34 13.5 °F 8.8 °F 30.24 in WSW 9.0 mph 15.0 mph 81% 0.00 in
21:35 13.5 °F 8.8 °F 30.24 in SSW 7.0 mph 15.0 mph 81% 0.00 in
21:44 13.6 °F 8.6 °F 30.23 in SSW 8.0 mph 20.0 mph 80% 0.00 in
21:54 13.8 °F 8.8 °F 30.24 in South 7.0 mph 20.0 mph 80% 0.00 in
21:59 13.9 °F 8.9 °F 30.23 in SSW 8.0 mph 20.0 mph 80% 0.00 in
22:04 13.9 °F 8.9 °F 30.24 in SSW 8.0 mph 18.0 mph 80% 0.00 in
22:15 13.9 °F 8.9 °F 30.23 in SSW 9.0 mph 18.0 mph 80% 0.00 in
22:24 13.7 °F 8.4 °F 30.24 in SW 12.0 mph 16.0 mph 79% 0.00 in
22:29 13.5 °F 8.2 °F 30.24 in South 6.0 mph 15.0 mph 79% 0.00 in
22:34 13.3 °F 8.0 °F 30.23 in SSW 9.0 mph 19.0 mph 79% 0.00 in
22:39 13.2 °F 7.9 °F 30.24 in SSW 9.0 mph 21.0 mph 79% 0.00 in
22:44 13.1 °F 7.8 °F 30.24 in SSW 8.0 mph 21.0 mph 79% 0.00 in
22:54 13.0 °F 7.7 °F 30.24 in SSW 8.0 mph 15.0 mph 79% 0.00 in
22:59 12.9 °F 7.6 °F 30.24 in SW 7.0 mph 18.0 mph 79% 0.00 in
23:04 12.8 °F 7.5 °F 30.24 in SW 7.0 mph 18.0 mph 79% 0.00 in
23:19 12.6 °F 7.3 °F 30.23 in SSW 9.0 mph 18.0 mph 79% 0.00 in
23:24 12.6 °F 7.3 °F 30.23 in SSW 9.0 mph 18.0 mph 79% 0.00 in
23:29 12.6 °F 7.3 °F 30.23 in SSW 7.0 mph 18.0 mph 79% 0.00 in
23:34 12.6 °F 7.3 °F 30.23 in WSW 11.0 mph 20.0 mph 79% 0.00 in
23:39 12.6 °F 7.3 °F 30.23 in SW 8.0 mph 18.0 mph 79% 0.00 in
23:44 12.6 °F 7.3 °F 30.23 in SSW 9.0 mph 18.0 mph 79% 0.00 in
23:59 12.3 °F 6.7 °F 30.23 in SSW 9.0 mph 21.0 mph 78% 0.00 in
Buffalo, New York, USA
Compliments of Weather Underground - 2.25 mb